Terminal Aerodrome Forecast
Issued by NWS Mt. Holly, NJ

Home | Current Version | Previous Version | Text Only | Print | Product List | Glossary On
Versions: 1 2 3 4 5 6 7 8 9 10 11 12 13 14 15 16 17 18 19 20 21 22 23 24 25 26
000
FTUS41 KPHI 260500
TAFILG
TAF
KILG 260537Z 2606/2706 VRB05KT P6SM OVC100
      TEMPO 2609/2612 5SM -RA OVC030
     FM261200 02014G25KT 3SM RA OVC009
     FM261700 02018G26KT 2SM -RASN OVC006
     FM262300 35017G25KT 3SM -RASN OVC025
     FM270200 32011KT P6SM BKN030=

USA.gov is the U.S. government's official web portal to all federal, state and local government web resources and services.